Time;durP1;ratioP1;P1;durP2;ratioP2;P2;SDS_P1;SDS_P2;PMS_P1;PMS_P2;Temp;Humidity;BMP_temperature;BMP_pressure;BME280_temperature;BME280_humidity;BME280_pressure;Samples;Min_cycle;Max_cycle;Signal;HPM_P1;HPM_P2
2021/03/23 00:01:18;;;;;;;;;75.25;48.50;;;;;-1.68;59.51;99976.91;5064289;28;8834;-59
2021/03/23 00:03:49;;;;;;;;;63.50;45.00;;;;;-1.78;60.27;99978.72;5062041;28;8825;-59
2021/03/23 00:06:22;;;;;;;;;58.50;37.00;;;;;-1.63;59.39;99980.38;5063866;28;8838;-59
2021/03/23 00:08:56;;;;;;;;;40.00;27.50;;;;;-1.89;60.55;99984.97;5064949;28;8849;-60
2021/03/23 00:11:36;;;;;;;;;43.25;27.50;;;;;-2.13;62.31;99984.22;5068236;28;10703;-59
2021/03/23 00:14:07;;;;;;;;;38.50;24.25;;;;;-1.98;60.57;99984.09;5062221;28;8824;-60
2021/03/23 00:16:41;;;;;;;;;34.25;26.50;;;;;-2.15;61.60;99980.72;5059135;28;8868;-60
2021/03/23 00:19:10;;;;;;;;;27.50;21.25;;;;;-1.50;58.89;99996.06;5062832;28;8853;-59
2021/03/23 00:21:37;;;;;;;;;32.00;21.00;;;;;-1.50;59.58;99993.44;5061879;28;9622;-59
2021/03/23 00:24:05;;;;;;;;;24.50;16.00;;;;;-1.42;59.29;99995.16;5066323;28;8829;-59
2021/03/23 00:26:32;;;;;;;;;32.25;19.75;;;;;-1.76;60.05;99984.00;5062407;28;8855;-59
2021/03/23 00:29:00;;;;;;;;;22.75;16.25;;;;;-1.55;60.37;99989.09;5066205;28;8821;-59
2021/03/23 00:31:34;;;;;;;;;27.25;18.50;;;;;-1.59;60.26;99990.00;5066946;28;9315;-59
2021/03/23 00:34:05;;;;;;;;;18.25;13.00;;;;;-1.41;60.17;99978.44;5066709;28;8821;-60
2021/03/23 00:36:39;;;;;;;;;27.50;19.50;;;;;-1.34;59.50;99981.91;5065670;28;8825;-60
2021/03/23 00:39:09;;;;;;;;;18.00;15.50;;;;;-1.66;60.55;99984.78;5064874;28;8873;-61
2021/03/23 00:41:40;;;;;;;;;23.00;18.00;;;;;-1.95;61.10;99983.22;5057708;28;8960;-59
2021/03/23 00:44:12;;;;;;;;;28.00;18.75;;;;;-1.78;61.70;99991.03;5057575;28;9545;-60
2021/03/23 00:46:39;;;;;;;;;38.00;30.00;;;;;-1.86;61.88;99982.31;5062040;28;8834;-59
2021/03/23 00:49:07;;;;;;;;;42.25;32.25;;;;;-2.23;62.61;99993.91;5061653;28;8931;-59
2021/03/23 00:51:34;;;;;;;;;41.00;25.50;;;;;-2.23;63.53;99985.16;5067236;28;8851;-60
2021/03/23 00:54:00;;;;;;;;;31.00;19.50;;;;;-2.05;62.83;99990.31;5061015;28;8938;-59
2021/03/23 00:56:27;;;;;;;;;26.25;21.50;;;;;-1.82;60.72;99984.00;5067184;28;8868;-59
2021/03/23 00:58:54;;;;;;;;;25.00;18.00;;;;;-1.78;60.95;99985.75;5061367;28;8924;-59
2021/03/23 01:01:21;;;;;;;;;21.00;15.25;;;;;-1.46;60.15;99992.53;5060644;28;8820;-59
2021/03/23 01:03:48;;;;;;;;;15.50;15.00;;;;;-1.47;59.62;99993.44;5061068;28;9615;-60
2021/03/23 01:06:15;;;;;;;;;22.00;17.00;;;;;-1.52;60.72;99998.75;5060275;28;8880;-59
2021/03/23 01:08:42;;;;;;;;;32.00;15.50;;;;;-1.56;60.49;100003.13;5079346;28;8865;-59
2021/03/23 01:11:09;;;;;;;;;21.00;18.50;;;;;-1.53;60.09;99998.72;5066187;28;8841;-59
2021/03/23 01:13:36;;;;;;;;;21.75;16.50;;;;;-1.49;59.83;99997.84;5062431;28;8844;-59
2021/03/23 01:16:04;;;;;;;;;16.00;15.00;;;;;-1.36;58.29;100000.34;5065194;28;8946;-59
2021/03/23 01:18:31;;;;;;;;;19.75;12.75;;;;;-1.38;58.34;100001.25;5063435;28;8868;-59
2021/03/23 01:20:58;;;;;;;;;24.25;18.00;;;;;-1.38;59.05;100006.53;5060000;28;8849;-59
2021/03/23 01:23:25;;;;;;;;;26.50;15.25;;;;;-1.42;59.22;100012.69;5067701;28;8884;-59
2021/03/23 01:25:52;;;;;;;;;19.75;12.00;;;;;-1.33;59.18;99999.47;5061613;28;8845;-59
2021/03/23 01:28:19;;;;;;;;;13.00;12.00;;;;;-1.32;58.95;100001.19;5060791;28;8847;-59
2021/03/23 01:30:45;;;;;;;;;21.50;15.25;;;;;-1.35;59.19;100010.00;5056682;28;8845;-59
2021/03/23 01:33:12;;;;;;;;;25.75;13.50;;;;;-1.60;59.59;100005.81;5061484;28;8843;-59
2021/03/23 01:35:40;;;;;;;;;34.00;21.00;;;;;-1.76;61.06;100007.69;5056814;28;8848;-59
2021/03/23 01:38:07;;;;;;;;;47.25;25.00;;;;;-1.80;61.73;100011.19;5063476;28;8832;-59
2021/03/23 01:40:35;;;;;;;;;36.50;22.75;;;;;-1.81;60.95;100007.69;5064167;28;8827;-59
2021/03/23 01:43:05;;;;;;;;;22.75;15.25;;;;;-1.83;61.19;100004.19;5061819;28;8846;-60
2021/03/23 01:45:41;;;;;;;;;22.00;16.50;;;;;-2.22;62.91;100007.91;5057158;28;8866;-59
2021/03/23 01:48:22;;;;;;;;;18.25;12.25;;;;;-2.36;64.09;100004.50;5061913;28;8872;-59
2021/03/23 01:50:54;;;;;;;;;32.75;18.00;;;;;-2.25;63.82;100002.69;5063700;28;8884;-59
2021/03/23 01:53:29;;;;;;;;;26.00;16.00;;;;;-2.55;64.89;100012.44;5062163;28;8860;-59
2021/03/23 01:55:59;;;;;;;;;62.50;38.25;;;;;-2.47;65.56;100018.53;5059425;28;8837;-59
2021/03/23 01:58:27;;;;;;;;;70.00;49.50;;;;;-2.50;65.82;100010.69;5062446;28;8829;-59
2021/03/23 02:00:54;;;;;;;;;37.75;12.50;;;;;-2.36;64.38;100012.38;5064072;28;8844;-59
2021/03/23 02:03:22;;;;;;;;;52.50;41.75;;;;;-2.26;64.91;100014.09;5063011;28;8817;-59
2021/03/23 02:05:58;;;;;;;;;56.50;37.75;;;;;-2.37;64.61;100015.88;5064500;28;8883;-60
2021/03/23 02:08:27;;;;;;;;;45.75;33.50;;;;;-2.43;65.04;100017.63;5064838;28;8833;-60
2021/03/23 02:10:57;;;;;;;;;41.25;29.00;;;;;-2.26;65.14;100024.59;5053610;28;8862;-59
2021/03/23 02:13:25;;;;;;;;;38.50;27.25;;;;;-2.58;66.44;100015.09;5060635;28;8846;-60
2021/03/23 02:15:52;;;;;;;;;30.75;24.00;;;;;-2.70;67.22;100018.59;5062143;28;8847;-60
2021/03/23 02:18:22;;;;;;;;;29.00;23.00;;;;;-2.19;64.02;100021.03;5060174;28;8856;-60
2021/03/23 02:21:00;;;;;;;;;33.50;21.25;;;;;-2.17;63.83;100011.41;5060833;28;8860;-58
2021/03/23 02:23:33;;;;;;;;;33.25;24.75;;;;;-2.36;64.42;100017.63;5061513;28;8849;-59
2021/03/23 02:26:03;;;;;;;;;28.75;23.25;;;;;-2.61;66.07;100012.44;5069167;28;8976;-60
2021/03/23 02:28:34;;;;;;;;;23.50;16.75;;;;;-2.31;65.46;100018.50;5063598;28;8845;-60
2021/03/23 02:31:01;;;;;;;;;40.75;28.25;;;;;-2.47;65.41;100020.31;5084918;28;8855;-60
2021/03/23 02:33:27;;;;;;;;;26.00;21.25;;;;;-2.23;65.06;100025.47;5063578;28;8911;-60
2021/03/23 02:35:55;;;;;;;;;25.50;19.00;;;;;-2.18;64.63;100027.22;5061675;28;8864;-60
2021/03/23 02:38:21;;;;;;;;;34.00;21.75;;;;;-2.06;63.74;100027.13;5063364;28;8845;-59
2021/03/23 02:40:48;;;;;;;;;33.50;21.50;;;;;-2.21;63.87;100022.84;5068299;28;8849;-59
2021/03/23 02:43:15;;;;;;;;;39.50;28.50;;;;;-2.47;65.23;100021.16;5063112;28;8849;-59
2021/03/23 02:45:56;;;;;;;;;19.75;18.25;;;;;-2.40;66.08;100018.50;5063175;28;8951;-60
2021/03/23 02:48:24;;;;;;;;;36.25;22.00;;;;;-2.68;66.87;100026.50;5060679;28;8845;-60
2021/03/23 02:50:52;;;;;;;;;30.00;23.50;;;;;-2.78;66.25;100030.03;5063221;28;8853;-60
2021/03/23 02:53:19;;;;;;;;;24.75;22.25;;;;;-2.84;67.50;100025.66;5061207;28;8853;-60
2021/03/23 02:55:46;;;;;;;;;35.50;18.75;;;;;-2.99;68.62;100023.91;5062311;28;8860;-59
2021/03/23 02:58:14;;;;;;;;;30.50;26.00;;;;;-2.70;67.73;100025.63;5062912;28;8848;-59
2021/03/23 03:00:43;;;;;;;;;30.50;22.00;;;;;-2.85;67.41;100023.03;5063513;28;8854;-59
2021/03/23 03:03:12;;;;;;;;;32.25;23.50;;;;;-3.07;68.92;100023.06;5062916;28;8860;-59
2021/03/23 03:05:52;;;;;;;;;31.25;17.50;;;;;-2.57;68.08;100016.81;5064881;28;8848;-59
2021/03/23 03:08:20;;;;;;;;;24.50;15.50;;;;;-2.46;67.43;100027.31;5063791;28;8910;-59
2021/03/23 03:10:47;;;;;;;;;20.75;18.00;;;;;-2.60;67.88;100035.22;5062450;28;8818;-59
2021/03/23 03:13:14;;;;;;;;;17.00;13.00;;;;;-2.59;67.75;100022.97;5063288;28;8880;-59
2021/03/23 03:15:42;;;;;;;;;24.00;19.75;;;;;-2.26;66.49;100016.72;5060636;28;8944;-59
2021/03/23 03:18:10;;;;;;;;;18.25;12.25;;;;;-2.12;66.31;100017.50;5063379;28;8872;-59
2021/03/23 03:20:37;;;;;;;;;23.50;16.00;;;;;-2.37;66.46;100026.38;5054944;28;8908;-60
2021/03/23 03:23:06;;;;;;;;;18.00;15.75;;;;;-2.52;67.47;100022.94;5066044;28;8834;-59
2021/03/23 03:25:32;;;;;;;;;25.75;15.75;;;;;-2.46;67.89;100020.28;5062375;28;8838;-59
2021/03/23 03:27:59;;;;;;;;;47.25;33.25;;;;;-1.99;66.78;100024.47;5066896;28;8888;-59
2021/03/23 03:30:32;;;;;;;;;44.25;38.25;;;;;-2.20;67.08;100027.19;5062010;28;8872;-59
2021/03/23 03:33:00;;;;;;;;;48.00;40.25;;;;;-2.35;67.94;100014.97;5069572;28;8978;-60
2021/03/23 03:35:31;;;;;;;;;541.67;443.67;;;;;-1.96;66.67;100009.56;5065245;28;8829;-58
2021/03/23 03:37:59;;;;;;;;;98.50;72.50;;;;;-1.83;66.06;100014.72;5064460;28;11667;-59
2021/03/23 03:40:44;;;;;;;;;78.00;49.00;;;;;-1.88;66.17;100019.13;5041780;28;8872;-59
2021/03/23 03:43:15;;;;;;;;;97.50;72.25;;;;;-1.77;65.75;100027.84;5066140;28;8939;-59
2021/03/23 03:45:42;;;;;;;;;90.50;65.00;;;;;-1.85;66.04;100028.78;5066275;28;8841;-59
2021/03/23 03:48:09;;;;;;;;;66.50;50.50;;;;;-1.90;66.48;100025.28;5067625;28;9023;-59
2021/03/23 03:50:37;;;;;;;;;22.50;15.25;;;;;-1.90;66.55;100027.94;5059615;28;8833;-59
2021/03/23 03:53:05;;;;;;;;;24.00;16.50;;;;;-2.06;66.67;100028.00;5075143;28;8833;-59
2021/03/23 03:55:37;;;;;;;;;17.50;9.75;;;;;-1.84;65.63;100022.66;5074748;28;8821;-59
2021/03/23 03:58:05;;;;;;;;;23.50;18.75;;;;;-2.00;66.09;100027.13;5075275;28;8956;-58
2021/03/23 04:00:34;;;;;;;;;16.00;10.00;;;;;-2.02;66.99;100018.34;5074088;28;8861;-59
2021/03/23 04:03:04;;;;;;;;;27.25;17.50;;;;;-2.14;67.48;100021.03;5074882;28;8829;-59
2021/03/23 04:05:39;;;;;;;;;25.50;16.50;;;;;-2.22;67.81;100026.31;5072969;28;8817;-60
2021/03/23 04:08:08;;;;;;;;;33.25;21.75;;;;;-1.96;67.07;100027.97;5074753;28;8857;-59
2021/03/23 04:10:36;;;;;;;;;23.25;19.25;;;;;-2.02;67.85;100018.34;5073734;28;8838;-59
2021/03/23 04:13:03;;;;;;;;;33.50;25.25;;;;;-2.20;67.49;100029.84;5074461;28;8837;-59
2021/03/23 04:15:37;;;;;;;;;29.00;23.50;;;;;-2.11;66.45;100035.03;5061699;28;8903;-59
2021/03/23 04:18:06;;;;;;;;;23.50;20.00;;;;;-2.35;66.64;100035.16;5073916;28;8870;-58
2021/03/23 04:20:34;;;;;;;;;31.25;20.50;;;;;-2.50;67.59;100052.72;5073770;28;8952;-59
2021/03/23 04:23:02;;;;;;;;;23.00;19.00;;;;;-2.71;68.64;100047.53;5074112;28;9594;-59
2021/03/23 04:25:32;;;;;;;;;27.75;16.00;;;;;-2.76;67.74;100049.28;5073096;28;8841;-59
2021/03/23 04:28:01;;;;;;;;;20.25;17.50;;;;;-2.40;67.13;100055.31;5073650;28;9723;-59
2021/03/23 04:30:29;;;;;;;;;21.50;18.50;;;;;-2.68;68.98;100056.28;5074548;28;8884;-58
2021/03/23 04:32:57;;;;;;;;;23.75;15.50;;;;;-2.72;68.57;100061.53;5074245;28;8856;-59
2021/03/23 04:35:45;;;;;;;;;21.00;16.00;;;;;-2.56;68.59;100060.63;5072957;28;8943;-59
2021/03/23 04:38:19;;;;;;;;;30.25;18.50;;;;;-2.58;68.76;100065.03;5072534;28;8837;-59
2021/03/23 04:40:47;;;;;;;;;24.25;19.75;;;;;-2.61;69.34;100054.50;5068616;28;8875;-58
2021/03/23 04:43:41;;;;;;;;;28.50;22.00;;;;;-2.11;68.39;100061.34;5053041;28;8836;-59
2021/03/23 04:46:09;;;;;;;;;44.75;31.25;;;;;-2.17;68.64;100066.63;5060515;28;8837;-59
2021/03/23 04:48:37;;;;;;;;;30.50;27.25;;;;;-2.01;67.56;100073.56;5072423;28;8845;-60
2021/03/23 04:51:09;;;;;;;;;41.25;24.75;;;;;-1.86;67.59;100074.41;5072691;28;8841;-60
2021/03/23 04:53:39;;;;;;;;;42.25;26.00;;;;;-1.69;67.18;100056.75;5071228;28;8853;-59
2021/03/23 04:56:08;;;;;;;;;24.25;18.25;;;;;-1.86;67.82;100064.75;5051826;28;8848;-59
2021/03/23 04:58:35;;;;;;;;;33.00;23.00;;;;;-1.57;66.95;100059.31;5051037;28;8867;-59
2021/03/23 05:01:02;;;;;;;;;42.00;27.50;;;;;-1.48;66.77;100057.50;5060312;28;8847;-59
2021/03/23 05:03:33;;;;;;;;;33.75;21.25;;;;;-1.50;67.20;100059.25;5071318;28;8975;-59
2021/03/23 05:06:09;;;;;;;;;24.25;20.75;;;;;-1.48;66.11;100058.38;5071705;28;8868;-58
2021/03/23 05:08:42;;;;;;;;;36.75;29.25;;;;;-1.43;67.08;100066.25;5072274;28;8869;-59
2021/03/23 05:11:14;;;;;;;;;31.25;18.00;;;;;-1.31;66.29;100062.66;5071943;28;8952;-60
2021/03/23 05:13:42;;;;;;;;;29.00;22.00;;;;;-0.94;65.97;100055.34;5071628;28;8959;-59
2021/03/23 05:16:09;;;;;;;;;52.00;37.25;;;;;-0.80;64.77;100057.84;5072034;28;8821;-59
2021/03/23 05:18:37;;;;;;;;;67.75;48.75;;;;;-0.86;65.76;100057.91;5072287;28;8857;-59
2021/03/23 05:21:04;;;;;;;;;62.00;42.75;;;;;-0.68;64.80;100053.31;5071792;28;9554;-59
2021/03/23 05:23:31;;;;;;;;;44.75;32.50;;;;;-0.74;65.72;100056.03;5070576;28;8880;-59
2021/03/23 05:25:59;;;;;;;;;30.50;24.75;;;;;-0.63;64.01;100055.03;5071859;28;8965;-59
2021/03/23 05:28:26;;;;;;;;;28.75;20.50;;;;;-0.63;64.95;100060.31;5070518;28;9625;-59
2021/03/23 05:30:54;;;;;;;;;32.75;24.75;;;;;-0.67;64.59;100064.75;5072108;28;8971;-59
2021/03/23 05:33:21;;;;;;;;;35.00;23.25;;;;;-0.53;64.62;100061.97;5071407;28;8825;-59
2021/03/23 05:35:53;;;;;;;;;50.75;38.50;;;;;-0.43;65.05;100074.16;5070976;28;8853;-60
2021/03/23 05:38:20;;;;;;;;;58.25;44.50;;;;;-0.77;65.70;100076.25;5071452;28;8869;-60
2021/03/23 05:40:52;;;;;;;;;43.50;28.50;;;;;-0.62;65.71;100077.88;5071074;28;8825;-59
2021/03/23 05:43:57;;;;;;;;;43.50;35.25;;;;;-0.62;65.67;100083.16;5071970;28;8849;-60
2021/03/23 05:46:28;;;;;;;;;34.00;27.75;;;;;-0.55;65.55;100083.09;5071239;28;9613;-60
2021/03/23 05:49:02;;;;;;;;;31.00;29.00;;;;;-0.36;64.83;100081.13;5071261;28;8951;-60
2021/03/23 05:51:40;;;;;;;;;42.25;29.50;;;;;-0.11;64.54;100089.63;5071061;28;8867;-60
2021/03/23 05:54:22;;;;;;;;;33.25;22.25;;;;;-0.15;64.80;100087.06;5071337;28;8859;-60
2021/03/23 05:56:55;;;;;;;;;30.50;25.00;;;;;-0.04;64.95;100087.81;5066584;28;9674;-59
2021/03/23 05:59:47;;;;;;;;;28.25;21.00;;;;;0.45;63.11;100081.91;5050825;28;8860;-61
2021/03/23 06:02:53;;;;;;;;;30.75;24.50;;;;;0.43;64.05;100083.69;5070068;28;8872;-59
2021/03/23 06:05:44;;;;;;;;;34.75;28.00;;;;;0.48;64.11;100076.56;5071247;28;8983;-60
2021/03/23 06:08:37;;;;;;;;;71.50;48.75;;;;;0.44;65.68;100072.19;5071271;28;9597;-60
2021/03/23 06:11:06;;;;;;;;;74.25;52.00;;;;;0.81;63.28;100079.59;5070319;28;8944;-60
2021/03/23 06:13:48;;;;;;;;;35.75;31.00;;;;;1.07;62.50;100081.81;5070905;28;8838;-61
2021/03/23 06:16:40;;;;;;;;;39.25;30.00;;;;;1.15;63.01;100089.63;5050075;28;8890;-60
2021/03/23 06:19:43;;;;;;;;;10.50;6.00;;;;;1.20;63.14;100088.63;5054725;28;8864;-61
2021/03/23 06:22:31;;;;;;;;;33.75;28.50;;;;;1.33;62.67;100089.31;5071080;28;8826;-59
2021/03/23 06:25:17;;;;;;;;;34.25;27.00;;;;;1.49;61.78;100085.47;5071915;28;8849;-59
2021/03/23 06:28:15;;;;;;;;;35.00;26.50;;;;;1.54;61.29;100082.75;5071631;28;8857;-60
2021/03/23 06:30:56;;;;;;;;;35.25;29.75;;;;;1.58;61.41;100092.41;5069991;28;9601;-59
2021/03/23 06:33:27;;;;;;;;;39.00;32.00;;;;;1.58;60.73;100094.16;5069452;28;8833;-59
2021/03/23 06:36:04;;;;;;;;;47.50;32.25;;;;;1.62;61.63;100094.06;5069854;28;9608;-60
2021/03/23 06:38:39;;;;;;;;;51.00;39.75;;;;;1.80;60.72;100090.22;5070778;28;8857;-60
2021/03/23 06:41:11;;;;;;;;;53.25;37.25;;;;;1.78;60.22;100092.00;5070577;28;8844;-59
2021/03/23 06:43:42;;;;;;;;;46.25;32.25;;;;;2.06;59.56;100099.44;5070815;28;8845;-58
2021/03/23 06:46:22;;;;;;;;;30.50;27.50;;;;;2.23;59.27;100097.28;5071093;28;8963;-58
2021/03/23 06:49:25;;;;;;;;;41.00;27.25;;;;;2.22;60.26;100098.19;5070231;28;8886;-60
2021/03/23 06:51:55;;;;;;;;;44.25;31.50;;;;;2.50;59.34;100092.28;5070514;28;8853;-59
2021/03/23 06:54:34;;;;;;;;;58.00;42.75;;;;;2.48;59.05;100099.44;5069836;28;8833;-59
2021/03/23 06:57:16;;;;;;;;;48.00;36.25;;;;;2.61;58.92;100106.19;5070434;28;9601;-59
2021/03/23 07:00:03;;;;;;;;;47.00;36.25;;;;;2.59;60.07;100102.72;5070390;28;8841;-60
2021/03/23 07:02:44;;;;;;;;;43.00;36.25;;;;;2.83;58.92;100103.94;5066378;28;8857;-59
2021/03/23 07:05:35;;;;;;;;;45.00;35.50;;;;;3.03;58.23;100101.69;5069301;28;8888;-59
2021/03/23 07:08:25;;;;;;;;;38.00;33.50;;;;;3.34;56.77;100097.38;5072600;28;8841;-61
2021/03/23 07:10:52;;;;;;;;;40.25;27.75;;;;;3.32;57.34;100099.19;5073990;28;8833;-59
2021/03/23 07:13:28;;;;;;;;;42.25;32.25;;;;;3.50;56.73;100098.72;5074408;28;8833;-59
2021/03/23 07:16:11;;;;;;;;;55.25;42.25;;;;;3.53;55.41;100098.66;5069320;28;8853;-59
2021/03/23 07:18:44;;;;;;;;;39.50;39.50;;;;;3.78;54.68;100092.69;5073652;28;8855;-59
2021/03/23 07:21:27;;;;;;;;;62.50;46.75;;;;;4.11;54.47;100090.91;5073294;28;8869;-59
2021/03/23 07:24:16;;;;;;;;;88.00;61.00;;;;;4.26;53.52;100097.53;5073504;28;8856;-59
2021/03/23 07:27:04;;;;;;;;;37.00;29.50;;;;;4.16;53.15;100102.22;5072794;28;8841;-59
2021/03/23 07:29:38;;;;;;;;;34.25;28.50;;;;;4.85;51.93;100110.81;5069313;28;8855;-59
2021/03/23 07:32:18;;;;;;;;;31.50;26.50;;;;;4.68;51.24;100118.44;5053659;28;8964;-60
2021/03/23 07:35:23;;;;;;;;;38.50;27.50;;;;;5.19;51.29;100109.75;5073385;28;8896;-61
2021/03/23 07:38:11;;;;;;;;;22.00;19.75;;;;;5.01;49.67;100121.84;5073942;28;8936;-60
2021/03/23 07:41:00;;;;;;;;;31.00;26.50;;;;;5.18;49.05;100113.31;5072922;28;8852;-60
2021/03/23 07:44:04;;;;;;;;;28.75;23.75;;;;;5.68;47.67;100113.41;5070845;28;8940;-60
2021/03/23 07:46:42;;;;;;;;;41.25;36.75;;;;;5.67;48.11;100111.69;5082891;28;8853;-59
2021/03/23 07:49:19;;;;;;;;;32.67;24.33;;;;;5.96;48.25;100107.16;5069895;28;8843;-60
2021/03/23 07:52:03;;;;;;;;;29.33;25.33;;;;;6.10;48.00;100104.84;5069725;28;8844;-60
2021/03/23 07:54:40;;;;;;;;;29.33;22.33;;;;;6.03;46.84;100109.53;5053806;28;8946;-60
2021/03/23 07:57:37;;;;;;;;;25.00;20.00;;;;;6.47;46.19;100104.34;5052812;28;8866;-60
2021/03/23 08:00:32;;;;;;;;;23.33;19.33;;;;;6.75;45.65;100098.81;5054526;28;8847;-60
2021/03/23 08:03:39;;;;;;;;;26.33;22.00;;;;;6.64;46.33;100090.38;5059389;28;8825;-60
2021/03/23 08:06:22;;;;;;;;;25.33;22.33;;;;;6.83;46.26;100090.50;5071888;28;8825;-60
2021/03/23 08:09:25;;;;;;;;;34.00;20.00;;;;;7.65;43.27;100091.53;5072634;28;8846;-60
2021/03/23 08:12:06;;;;;;;;;19.00;17.00;;;;;7.64;41.00;100087.16;5073878;28;8857;-60
2021/03/23 08:15:03;;;;;;;;;21.33;18.67;;;;;7.91;40.39;100097.56;5073576;28;8848;-60
2021/03/23 08:17:36;;;;;;;;;18.00;16.33;;;;;8.32;40.60;100092.16;5073644;28;8841;-61
2021/03/23 08:20:43;;;;;;;;;18.67;15.67;;;;;8.23;40.58;100095.25;5073533;28;8876;-60
2021/03/23 08:23:48;;;;;;;;;18.00;17.67;;;;;8.60;39.23;100090.91;5072411;28;8855;-60
2021/03/23 08:26:35;;;;;;;;;21.00;19.00;;;;;8.69;37.86;100085.13;5067518;28;8949;-60
2021/03/23 08:29:25;;;;;;;;;12.00;12.00;;;;;9.14;38.03;100083.88;5066858;28;9671;-60
2021/03/23 08:32:44;;;;;;;;;14.67;13.00;;;;;8.56;36.98;100084.84;5052258;28;8859;-60
2021/03/23 08:35:39;;;;;;;;;17.67;12.00;;;;;9.24;37.24;100087.78;5071047;28;8903;-60
2021/03/23 08:38:53;;;;;;;;;16.00;14.33;;;;;8.90;36.11;100085.91;5074670;28;11633;-60
2021/03/23 08:41:47;;;;;;;;;16.00;12.00;;;;;8.78;37.29;100079.34;5073737;28;9582;-60
2021/03/23 08:44:33;;;;;;;;;13.33;11.33;;;;;9.09;37.15;100075.19;5073266;28;8837;-60
2021/03/23 08:47:25;;;;;;;;;13.33;12.67;;;;;8.93;37.11;100070.56;5073347;28;8826;-60
2021/03/23 08:49:56;;;;;;;;;16.33;13.33;;;;;9.34;38.27;100072.13;5074362;28;8907;-60
2021/03/23 08:52:39;;;;;;;;;11.00;11.00;;;;;9.37;37.03;100070.19;5073927;28;8837;-60
2021/03/23 08:55:29;;;;;;;;;14.67;13.33;;;;;9.29;37.49;100069.69;5074103;28;8844;-59
2021/03/23 08:58:00;;;;;;;;;13.00;11.67;;;;;9.30;37.18;100065.22;5072262;28;9667;-60
2021/03/23 09:00:41;;;;;;;;;20.00;16.00;;;;;8.80;36.90;100072.13;5064750;28;8940;-60
2021/03/23 09:03:08;;;;;;;;;21.00;16.00;;;;;9.51;37.59;100071.31;5073490;28;11607;-60
2021/03/23 09:05:44;;;;;;;;;20.33;15.00;;;;;9.25;38.18;100062.75;5071102;28;8880;-60
2021/03/23 09:08:47;;;;;;;;;16.33;15.00;;;;;9.17;36.99;100070.31;5064199;28;8858;-60
2021/03/23 09:11:37;;;;;;;;;25.00;18.33;;;;;9.19;39.33;100074.66;5061220;28;11516;-60
2021/03/23 09:14:07;;;;;;;;;19.00;18.33;;;;;9.06;38.89;100073.53;5073770;28;8924;-60
2021/03/23 09:17:01;;;;;;;;;21.67;17.00;;;;;9.48;38.98;100072.31;5067189;28;8821;-60
2021/03/23 09:19:45;;;;;;;;;22.67;16.67;;;;;9.97;39.02;100066.22;5066906;28;8943;-60
2021/03/23 09:22:20;;;;;;;;;19.00;16.33;;;;;9.54;38.31;100063.09;5073943;28;11550;-60
2021/03/23 09:24:48;;;;;;;;;18.67;16.33;;;;;9.45;38.39;100062.63;5055373;28;11540;-60
2021/03/23 09:27:24;;;;;;;;;19.67;19.33;;;;;9.98;38.27;100051.84;5073873;28;11528;-60
2021/03/23 09:29:52;;;;;;;;;14.67;14.00;;;;;9.87;37.76;100050.63;5072725;28;11556;-60
2021/03/23 09:32:21;;;;;;;;;18.33;17.67;;;;;9.76;37.75;100052.97;5072698;28;11515;-60
2021/03/23 09:37:44;;;;;;;;;15.25;12.25;;;;;9.66;36.88;100054.41;5073335;28;8837;-60
2021/03/23 09:40:40;;;;;;;;;26.33;17.00;;;;;9.59;36.76;100047.66;5067371;28;11522;-60
2021/03/23 09:43:24;;;;;;;;;16.00;13.67;;;;;9.62;38.34;100034.09;5080877;28;11578;-60
2021/03/23 09:45:59;;;;;;;;;12.33;10.67;;;;;9.53;37.88;100037.22;5089154;28;11629;-60
2021/03/23 09:48:53;;;;;;;;;18.00;12.00;;;;;9.67;38.14;100029.34;5073569;28;8884;-60
2021/03/23 09:51:41;;;;;;;;;17.00;11.33;;;;;9.14;37.78;100022.25;5073226;28;11527;-60
2021/03/23 09:55:00;;;;;;;;;15.00;12.67;;;;;9.23;38.49;100027.13;5072434;28;11534;-60
2021/03/23 09:57:30;;;;;;;;;12.00;11.00;;;;;8.93;38.63;100024.19;5068110;28;11555;-60
2021/03/23 10:00:31;;;;;;;;;16.00;15.00;;;;;9.25;38.87;100013.69;5072945;28;8821;-60
2021/03/23 10:03:03;;;;;;;;;11.67;8.67;;;;;8.65;38.25;100011.28;5056613;28;8845;-60
2021/03/23 10:05:34;;;;;;;;;17.67;10.00;;;;;8.79;38.23;100019.50;5072171;28;11530;-60
2021/03/23 10:08:20;;;;;;;;;11.67;8.67;;;;;9.12;37.76;100008.06;5072178;28;8862;-60
2021/03/23 10:10:47;;;;;;;;;12.33;10.67;;;;;9.73;37.91;100020.97;5073179;28;11535;-60
2021/03/23 10:13:28;;;;;;;;;16.67;15.00;;;;;9.23;38.45;100006.56;5072349;28;12263;-60
2021/03/23 10:15:59;;;;;;;;;17.67;15.33;;;;;9.56;39.87;100018.31;5063691;28;8841;-59
2021/03/23 10:18:39;;;;;;;;;20.33;14.33;;;;;9.54;38.69;100009.50;5071725;28;11538;-60
2021/03/23 10:21:14;;;;;;;;;20.67;16.33;;;;;9.44;39.00;100004.59;5072936;28;11550;-60
2021/03/23 10:24:01;;;;;;;;;18.67;16.33;;;;;9.88;38.55;100004.06;5072605;28;8861;-60
2021/03/23 10:26:41;;;;;;;;;22.33;15.33;;;;;9.57;39.54;100009.31;5071905;28;11536;-60
2021/03/23 10:29:24;;;;;;;;;21.00;16.00;;;;;9.64;38.78;99995.53;5070888;28;11554;-60
2021/03/23 10:31:56;;;;;;;;;26.67;20.00;;;;;9.73;39.32;99988.78;5072745;28;11544;-60
2021/03/23 10:34:30;;;;;;;;;20.67;16.67;;;;;9.27;40.73;99990.31;5072505;28;8857;-60
2021/03/23 10:37:08;;;;;;;;;20.67;17.67;;;;;9.76;39.38;99999.34;5072503;28;8822;-60
2021/03/23 10:39:49;;;;;;;;;19.00;17.00;;;;;9.56;40.98;99991.53;5073025;28;8979;-60
2021/03/23 10:42:36;;;;;;;;;20.67;16.00;;;;;9.47;40.97;99986.63;5076844;28;8829;-60
2021/03/23 10:45:31;;;;;;;;;20.33;19.33;;;;;9.67;39.60;99986.44;5074953;28;8971;-59
2021/03/23 10:48:38;;;;;;;;;18.00;16.33;;;;;9.25;39.67;99984.19;5076580;28;8817;-59
2021/03/23 10:51:13;;;;;;;;;25.67;16.00;;;;;9.35;40.18;99986.31;5047152;28;8849;-59
2021/03/23 10:54:07;;;;;;;;;15.00;15.00;;;;;9.55;39.44;99985.28;5076750;28;8833;-59
2021/03/23 10:56:44;;;;;;;;;15.67;13.00;;;;;9.88;38.90;99981.75;5075609;28;12174;-59
2021/03/23 10:59:14;;;;;;;;;20.00;15.00;;;;;9.68;39.38;99980.13;5076682;28;11537;-59
2021/03/23 11:02:05;;;;;;;;;12.00;12.00;;;;;9.87;39.04;99980.91;5075971;28;11540;-59
2021/03/23 11:04:36;;;;;;;;;16.75;12.00;;;;;9.80;38.72;99968.75;5075360;28;11644;-59
2021/03/23 11:07:22;;;;;;;;;14.00;12.67;;;;;10.06;39.10;99964.66;5074148;28;12347;-59
2021/03/23 11:10:00;;;;;;;;;15.67;12.00;;;;;9.97;38.63;99958.91;5076057;28;11578;-59
2021/03/23 11:12:29;;;;;;;;;17.00;13.00;;;;;10.14;39.36;99966.91;5074828;28;11526;-60
2021/03/23 11:14:59;;;;;;;;;13.00;12.00;;;;;9.48;38.68;99958.88;5074960;28;11510;-59
2021/03/23 11:17:28;;;;;;;;;13.00;12.33;;;;;9.76;38.67;99953.78;5075715;28;11550;-59
2021/03/23 11:20:05;;;;;;;;;15.00;14.00;;;;;9.75;38.96;99959.22;5074739;28;11510;-59
2021/03/23 11:22:35;;;;;;;;;15.00;14.33;;;;;9.86;38.95;99949.63;5075929;28;11513;-59
2021/03/23 11:25:05;;;;;;;;;10.33;10.33;;;;;9.73;38.56;99947.72;5073626;28;12323;-59
2021/03/23 11:27:32;;;;;;;;;15.00;12.33;;;;;10.12;37.77;99947.34;5075196;28;11523;-60
2021/03/23 11:30:00;;;;;;;;;13.67;11.00;;;;;10.29;37.29;99944.63;5075450;28;11562;-59
2021/03/23 11:32:28;;;;;;;;;9.00;8.25;;;;;10.60;36.97;99937.50;5075430;28;11619;-59
2021/03/23 11:34:55;;;;;;;;;18.33;11.67;;;;;10.06;37.60;99928.94;5075329;28;11478;-59
2021/03/23 11:37:23;;;;;;;;;16.75;13.75;;;;;10.48;36.97;99931.03;5075769;28;11515;-59
2021/03/23 11:39:52;;;;;;;;;10.50;8.25;;;;;10.67;36.88;99928.16;5074859;28;11600;-60
2021/03/23 11:42:44;;;;;;;;;10.50;9.50;;;;;10.20;36.86;99930.84;5075527;28;11584;-59
2021/03/23 11:45:35;;;;;;;;;12.00;9.25;;;;;10.67;36.83;99938.03;5057799;28;11607;-59
2021/03/23 11:48:10;;;;;;;;;11.00;10.00;;;;;10.26;36.89;99931.34;5074604;28;11511;-58
2021/03/23 11:50:40;;;;;;;;;12.00;9.25;;;;;10.01;38.09;99925.63;5074965;28;11557;-58
2021/03/23 11:53:07;;;;;;;;;9.00;8.00;;;;;9.59;37.80;99916.28;5075270;28;11477;-59
2021/03/23 11:55:41;;;;;;;;;7.33;7.33;;;;;10.04;38.60;99915.59;5075668;28;11568;-58
2021/03/23 11:58:09;;;;;;;;;13.67;9.00;;;;;9.75;38.67;99911.81;5073165;28;11481;-58
2021/03/23 12:00:36;;;;;;;;;12.67;8.00;;;;;9.67;38.84;99916.75;5074797;28;12311;-58
2021/03/23 12:03:10;;;;;;;;;10.67;9.33;;;;;9.50;39.04;99911.41;5075029;28;11544;-58
2021/03/23 12:05:39;;;;;;;;;14.33;11.00;;;;;9.91;39.45;99908.31;5074552;28;11500;-58